sensor_id;sensor_type;location;lat;lon;timestamp;temperature;humidity
3919;DHT22;1974;48.670;8.994;2022-10-04T00:00:47;8.60;99.90
3919;DHT22;1974;48.670;8.994;2022-10-04T00:03:19;8.60;99.90
3919;DHT22;1974;48.670;8.994;2022-10-04T00:05:50;8.50;99.90
3919;DHT22;1974;48.670;8.994;2022-10-04T00:08:25;8.50;99.90
3919;DHT22;1974;48.670;8.994;2022-10-04T00:11:02;8.40;99.90
3919;DHT22;1974;48.670;8.994;2022-10-04T00:13:31;8.40;99.90
3919;DHT22;1974;48.670;8.994;2022-10-04T00:15:59;8.40;99.90
3919;DHT22;1974;48.670;8.994;2022-10-04T00:18:28;8.40;99.90
3919;DHT22;1974;48.670;8.994;2022-10-04T00:21:01;8.40;99.90
3919;DHT22;1974;48.670;8.994;2022-10-04T00:23:41;8.40;99.90
3919;DHT22;1974;48.670;8.994;2022-10-04T00:26:14;8.40;99.90
3919;DHT22;1974;48.670;8.994;2022-10-04T00:28:43;8.40;99.90
3919;DHT22;1974;48.670;8.994;2022-10-04T00:31:28;8.40;99.90
3919;DHT22;1974;48.670;8.994;2022-10-04T00:34:42;8.30;99.90
3919;DHT22;1974;48.670;8.994;2022-10-04T00:36:53;8.30;99.90
3919;DHT22;1974;48.670;8.994;2022-10-04T00:39:26;8.30;99.90
3919;DHT22;1974;48.670;8.994;2022-10-04T00:44:56;8.40;99.90
3919;DHT22;1974;48.670;8.994;2022-10-04T00:47:28;8.40;99.90
3919;DHT22;1974;48.670;8.994;2022-10-04T00:50:01;8.40;99.90
3919;DHT22;1974;48.670;8.994;2022-10-04T00:52:33;8.40;99.90
3919;DHT22;1974;48.670;8.994;2022-10-04T00:55:03;8.40;99.90
3919;DHT22;1974;48.670;8.994;2022-10-04T00:57:34;8.40;99.90
3919;DHT22;1974;48.670;8.994;2022-10-04T01:00:07;8.40;99.90
3919;DHT22;1974;48.670;8.994;2022-10-04T01:02:47;8.40;99.90
3919;DHT22;1974;48.670;8.994;2022-10-04T01:05:18;8.40;99.90
3919;DHT22;1974;48.670;8.994;2022-10-04T01:07:49;8.40;99.90
3919;DHT22;1974;48.670;8.994;2022-10-04T01:10:20;8.40;99.90
3919;DHT22;1974;48.670;8.994;2022-10-04T01:12:51;8.40;99.90
3919;DHT22;1974;48.670;8.994;2022-10-04T01:15:25;8.40;99.90
3919;DHT22;1974;48.670;8.994;2022-10-04T01:18:13;8.40;99.90
3919;DHT22;1974;48.670;8.994;2022-10-04T01:20:49;8.30;99.90
3919;DHT22;1974;48.670;8.994;2022-10-04T01:23:41;8.30;99.90
3919;DHT22;1974;48.670;8.994;2022-10-04T01:26:35;8.20;99.90
3919;DHT22;1974;48.670;8.994;2022-10-04T01:29:06;8.20;99.90
3919;DHT22;1974;48.670;8.994;2022-10-04T01:31:35;8.20;99.90
3919;DHT22;1974;48.670;8.994;2022-10-04T01:34:03;8.10;99.90
3919;DHT22;1974;48.670;8.994;2022-10-04T01:36:30;8.10;99.90
3919;DHT22;1974;48.670;8.994;2022-10-04T01:38:59;8.10;99.90
3919;DHT22;1974;48.670;8.994;2022-10-04T01:41:28;8.00;99.90
3919;DHT22;1974;48.670;8.994;2022-10-04T01:43:59;8.00;99.90
3919;DHT22;1974;48.670;8.994;2022-10-04T01:46:32;8.00;99.90
3919;DHT22;1974;48.670;8.994;2022-10-04T01:49:03;8.00;99.90
3919;DHT22;1974;48.670;8.994;2022-10-04T01:51:34;8.00;99.90
3919;DHT22;1974;48.670;8.994;2022-10-04T01:54:06;7.90;99.90
3919;DHT22;1974;48.670;8.994;2022-10-04T01:56:40;8.00;99.90
3919;DHT22;1974;48.670;8.994;2022-10-04T01:59:14;7.90;99.90
3919;DHT22;1974;48.670;8.994;2022-10-04T02:01:46;7.90;99.90
3919;DHT22;1974;48.670;8.994;2022-10-04T02:04:17;7.90;99.90
3919;DHT22;1974;48.670;8.994;2022-10-04T02:06:47;7.90;99.90
3919;DHT22;1974;48.670;8.994;2022-10-04T02:09:18;7.90;99.90
3919;DHT22;1974;48.670;8.994;2022-10-04T02:11:48;7.90;99.90
3919;DHT22;1974;48.670;8.994;2022-10-04T02:14:19;8.00;99.90
3919;DHT22;1974;48.670;8.994;2022-10-04T02:16:48;7.90;99.90
3919;DHT22;1974;48.670;8.994;2022-10-04T02:19:19;7.90;99.90
3919;DHT22;1974;48.670;8.994;2022-10-04T02:21:47;7.90;99.90
3919;DHT22;1974;48.670;8.994;2022-10-04T02:24:16;7.90;99.90
3919;DHT22;1974;48.670;8.994;2022-10-04T02:26:48;7.90;99.90
3919;DHT22;1974;48.670;8.994;2022-10-04T02:29:16;7.90;99.90
3919;DHT22;1974;48.670;8.994;2022-10-04T02:31:43;7.90;99.90
3919;DHT22;1974;48.670;8.994;2022-10-04T02:34:27;7.90;99.90
3919;DHT22;1974;48.670;8.994;2022-10-04T02:36:54;7.90;99.90
3919;DHT22;1974;48.670;8.994;2022-10-04T02:39:25;7.80;99.90
3919;DHT22;1974;48.670;8.994;2022-10-04T02:41:55;7.80;99.90
3919;DHT22;1974;48.670;8.994;2022-10-04T02:44:27;7.80;99.90
3919;DHT22;1974;48.670;8.994;2022-10-04T02:47:05;7.80;99.90
3919;DHT22;1974;48.670;8.994;2022-10-04T02:49:34;7.80;99.90
3919;DHT22;1974;48.670;8.994;2022-10-04T02:52:06;7.80;99.90
3919;DHT22;1974;48.670;8.994;2022-10-04T02:54:40;7.90;99.90
3919;DHT22;1974;48.670;8.994;2022-10-04T02:57:13;7.90;99.90
3919;DHT22;1974;48.670;8.994;2022-10-04T02:59:41;8.00;99.90
3919;DHT22;1974;48.670;8.994;2022-10-04T03:02:21;8.00;99.90
3919;DHT22;1974;48.670;8.994;2022-10-04T03:04:49;7.90;99.90
3919;DHT22;1974;48.670;8.994;2022-10-04T03:07:19;7.90;99.90
3919;DHT22;1974;48.670;8.994;2022-10-04T03:09:48;7.90;99.90
3919;DHT22;1974;48.670;8.994;2022-10-04T03:12:15;7.90;99.90
3919;DHT22;1974;48.670;8.994;2022-10-04T03:14:43;7.90;99.90
3919;DHT22;1974;48.670;8.994;2022-10-04T03:17:12;7.90;99.90
3919;DHT22;1974;48.670;8.994;2022-10-04T03:19:40;7.90;99.90
3919;DHT22;1974;48.670;8.994;2022-10-04T03:22:09;7.90;99.90
3919;DHT22;1974;48.670;8.994;2022-10-04T03:24:38;7.90;99.90
3919;DHT22;1974;48.670;8.994;2022-10-04T03:27:14;7.90;99.90
3919;DHT22;1974;48.670;8.994;2022-10-04T03:29:42;7.90;99.90
3919;DHT22;1974;48.670;8.994;2022-10-04T03:32:12;7.90;99.90
3919;DHT22;1974;48.670;8.994;2022-10-04T03:34:41;7.90;99.90
3919;DHT22;1974;48.670;8.994;2022-10-04T03:37:13;7.90;99.90
3919;DHT22;1974;48.670;8.994;2022-10-04T03:39:42;8.00;99.90
3919;DHT22;1974;48.670;8.994;2022-10-04T03:42:15;7.90;99.90
3919;DHT22;1974;48.670;8.994;2022-10-04T03:44:43;7.90;99.90
3919;DHT22;1974;48.670;8.994;2022-10-04T03:47:13;7.90;99.90
3919;DHT22;1974;48.670;8.994;2022-10-04T03:49:42;7.90;99.90
3919;DHT22;1974;48.670;8.994;2022-10-04T03:52:16;7.90;99.90
3919;DHT22;1974;48.670;8.994;2022-10-04T03:54:45;7.90;99.90
3919;DHT22;1974;48.670;8.994;2022-10-04T03:57:14;7.90;99.90
3919;DHT22;1974;48.670;8.994;2022-10-04T03:59:41;7.90;99.90
3919;DHT22;1974;48.670;8.994;2022-10-04T04:02:14;7.90;99.90
3919;DHT22;1974;48.670;8.994;2022-10-04T04:04:48;7.90;99.90
3919;DHT22;1974;48.670;8.994;2022-10-04T04:07:20;7.90;99.90
3919;DHT22;1974;48.670;8.994;2022-10-04T04:09:52;7.90;99.90
3919;DHT22;1974;48.670;8.994;2022-10-04T04:12:24;7.90;99.90
3919;DHT22;1974;48.670;8.994;2022-10-04T04:14:52;8.00;99.90
3919;DHT22;1974;48.670;8.994;2022-10-04T04:17:36;8.00;99.90
3919;DHT22;1974;48.670;8.994;2022-10-04T04:20:12;8.00;99.90
3919;DHT22;1974;48.670;8.994;2022-10-04T04:22:42;8.00;99.90
3919;DHT22;1974;48.670;8.994;2022-10-04T04:25:13;8.00;99.90
3919;DHT22;1974;48.670;8.994;2022-10-04T04:27:43;8.00;99.90
3919;DHT22;1974;48.670;8.994;2022-10-04T04:30:15;8.00;99.90
3919;DHT22;1974;48.670;8.994;2022-10-04T04:32:47;8.10;99.90
3919;DHT22;1974;48.670;8.994;2022-10-04T04:35:23;8.00;99.90
3919;DHT22;1974;48.670;8.994;2022-10-04T04:38:05;8.00;99.90
3919;DHT22;1974;48.670;8.994;2022-10-04T04:40:36;7.90;99.90
3919;DHT22;1974;48.670;8.994;2022-10-04T04:43:05;7.90;99.90
3919;DHT22;1974;48.670;8.994;2022-10-04T04:45:32;7.90;99.90
3919;DHT22;1974;48.670;8.994;2022-10-04T04:48:00;7.90;99.90
3919;DHT22;1974;48.670;8.994;2022-10-04T04:50:30;7.90;99.90
3919;DHT22;1974;48.670;8.994;2022-10-04T04:53:03;7.80;99.90
3919;DHT22;1974;48.670;8.994;2022-10-04T04:55:33;7.80;99.90
3919;DHT22;1974;48.670;8.994;2022-10-04T04:58:02;7.80;99.90
3919;DHT22;1974;48.670;8.994;2022-10-04T05:00:34;7.90;99.90
3919;DHT22;1974;48.670;8.994;2022-10-04T05:03:05;7.90;99.90
3919;DHT22;1974;48.670;8.994;2022-10-04T05:05:32;7.90;99.90
3919;DHT22;1974;48.670;8.994;2022-10-04T05:08:14;7.90;99.90
3919;DHT22;1974;48.670;8.994;2022-10-04T05:10:45;7.90;99.90
3919;DHT22;1974;48.670;8.994;2022-10-04T05:13:13;8.00;99.90
3919;DHT22;1974;48.670;8.994;2022-10-04T05:15:43;8.00;99.90
3919;DHT22;1974;48.670;8.994;2022-10-04T05:18:20;8.00;99.90
3919;DHT22;1974;48.670;8.994;2022-10-04T05:20:51;8.00;99.90
3919;DHT22;1974;48.670;8.994;2022-10-04T05:23:19;7.90;99.90
3919;DHT22;1974;48.670;8.994;2022-10-04T05:25:46;7.80;99.90
3919;DHT22;1974;48.670;8.994;2022-10-04T05:28:14;7.80;99.90
3919;DHT22;1974;48.670;8.994;2022-10-04T05:30:48;7.80;99.90
3919;DHT22;1974;48.670;8.994;2022-10-04T05:33:21;7.70;99.90
3919;DHT22;1974;48.670;8.994;2022-10-04T05:38:55;7.60;99.90
3919;DHT22;1974;48.670;8.994;2022-10-04T05:41:34;7.60;99.90
3919;DHT22;1974;48.670;8.994;2022-10-04T05:44:18;7.60;99.90
3919;DHT22;1974;48.670;8.994;2022-10-04T05:46:47;7.60;99.90
3919;DHT22;1974;48.670;8.994;2022-10-04T05:49:15;7.60;99.90
3919;DHT22;1974;48.670;8.994;2022-10-04T05:51:48;7.60;99.90
3919;DHT22;1974;48.670;8.994;2022-10-04T05:54:18;7.60;99.90
3919;DHT22;1974;48.670;8.994;2022-10-04T05:57:15;7.60;99.90
3919;DHT22;1974;48.670;8.994;2022-10-04T06:00:07;7.70;99.90
3919;DHT22;1974;48.670;8.994;2022-10-04T06:02:50;7.70;99.90
3919;DHT22;1974;48.670;8.994;2022-10-04T06:05:23;7.80;99.90
3919;DHT22;1974;48.670;8.994;2022-10-04T06:07:57;7.80;99.90
3919;DHT22;1974;48.670;8.994;2022-10-04T06:10:41;7.90;99.90
3919;DHT22;1974;48.670;8.994;2022-10-04T06:13:20;8.00;99.90
3919;DHT22;1974;48.670;8.994;2022-10-04T06:15:55;8.10;99.90
3919;DHT22;1974;48.670;8.994;2022-10-04T06:18:46;8.10;99.90
3919;DHT22;1974;48.670;8.994;2022-10-04T06:21:23;8.10;99.90
3919;DHT22;1974;48.670;8.994;2022-10-04T06:23:57;8.10;99.90
3919;DHT22;1974;48.670;8.994;2022-10-04T06:26:28;8.10;99.90
3919;DHT22;1974;48.670;8.994;2022-10-04T06:28:58;8.20;99.90
3919;DHT22;1974;48.670;8.994;2022-10-04T06:31:58;8.20;99.90
3919;DHT22;1974;48.670;8.994;2022-10-04T06:34:57;8.30;99.90
3919;DHT22;1974;48.670;8.994;2022-10-04T06:41:09;8.50;99.90
3919;DHT22;1974;48.670;8.994;2022-10-04T06:43:53;8.60;99.90
3919;DHT22;1974;48.670;8.994;2022-10-04T06:46:30;8.70;99.90
3919;DHT22;1974;48.670;8.994;2022-10-04T06:49:19;8.80;99.90
3919;DHT22;1974;48.670;8.994;2022-10-04T06:52:12;8.90;99.90
3919;DHT22;1974;48.670;8.994;2022-10-04T06:54:58;9.00;99.90
3919;DHT22;1974;48.670;8.994;2022-10-04T06:57:42;9.00;99.90
3919;DHT22;1974;48.670;8.994;2022-10-04T07:00:15;9.10;99.90
3919;DHT22;1974;48.670;8.994;2022-10-04T07:02:48;9.20;99.90
3919;DHT22;1974;48.670;8.994;2022-10-04T07:05:24;9.20;99.90
3919;DHT22;1974;48.670;8.994;2022-10-04T07:08:04;9.20;99.90
3919;DHT22;1974;48.670;8.994;2022-10-04T07:10:35;9.30;99.90
3919;DHT22;1974;48.670;8.994;2022-10-04T07:13:15;9.40;99.90
3919;DHT22;1974;48.670;8.994;2022-10-04T07:15:51;9.30;99.90
3919;DHT22;1974;48.670;8.994;2022-10-04T07:18:22;9.40;99.90
3919;DHT22;1974;48.670;8.994;2022-10-04T07:20:58;9.40;99.90
3919;DHT22;1974;48.670;8.994;2022-10-04T07:23:31;9.30;99.90
3919;DHT22;1974;48.670;8.994;2022-10-04T07:26:03;9.30;99.90
3919;DHT22;1974;48.670;8.994;2022-10-04T07:28:37;9.30;99.90
3919;DHT22;1974;48.670;8.994;2022-10-04T07:31:24;9.40;99.90
3919;DHT22;1974;48.670;8.994;2022-10-04T07:33:55;9.50;99.90
3919;DHT22;1974;48.670;8.994;2022-10-04T07:36:27;9.60;99.90
3919;DHT22;1974;48.670;8.994;2022-10-04T07:38:59;9.60;99.90
3919;DHT22;1974;48.670;8.994;2022-10-04T07:41:33;9.70;99.90
3919;DHT22;1974;48.670;8.994;2022-10-04T07:44:04;9.70;99.90
3919;DHT22;1974;48.670;8.994;2022-10-04T07:46:54;9.70;99.90
3919;DHT22;1974;48.670;8.994;2022-10-04T07:49:25;9.80;99.90
3919;DHT22;1974;48.670;8.994;2022-10-04T07:52:04;9.80;99.90
3919;DHT22;1974;48.670;8.994;2022-10-04T07:54:43;9.90;99.90
3919;DHT22;1974;48.670;8.994;2022-10-04T07:57:20;10.00;99.90
3919;DHT22;1974;48.670;8.994;2022-10-04T07:59:58;10.00;99.90
3919;DHT22;1974;48.670;8.994;2022-10-04T08:02:36;10.10;99.90
3919;DHT22;1974;48.670;8.994;2022-10-04T08:05:16;10.20;99.90
3919;DHT22;1974;48.670;8.994;2022-10-04T08:08:10;10.30;99.90
3919;DHT22;1974;48.670;8.994;2022-10-04T08:10:50;10.50;99.90
3919;DHT22;1974;48.670;8.994;2022-10-04T08:13:25;10.60;99.90
3919;DHT22;1974;48.670;8.994;2022-10-04T08:15:58;10.70;99.90
3919;DHT22;1974;48.670;8.994;2022-10-04T08:18:37;10.70;99.90
3919;DHT22;1974;48.670;8.994;2022-10-04T08:21:13;10.90;99.90
3919;DHT22;1974;48.670;8.994;2022-10-04T08:23:58;10.90;99.90
3919;DHT22;1974;48.670;8.994;2022-10-04T08:26:39;11.00;99.90
3919;DHT22;1974;48.670;8.994;2022-10-04T08:29:22;11.10;99.90
3919;DHT22;1974;48.670;8.994;2022-10-04T08:32:24;11.30;99.90
3919;DHT22;1974;48.670;8.994;2022-10-04T08:35:03;11.30;99.90
3919;DHT22;1974;48.670;8.994;2022-10-04T08:37:41;11.40;99.90
3919;DHT22;1974;48.670;8.994;2022-10-04T08:40:45;11.40;99.90
3919;DHT22;1974;48.670;8.994;2022-10-04T08:43:41;11.40;99.90
3919;DHT22;1974;48.670;8.994;2022-10-04T08:46:42;11.60;99.90
3919;DHT22;1974;48.670;8.994;2022-10-04T08:49:57;11.80;99.90
3919;DHT22;1974;48.670;8.994;2022-10-04T08:52:51;12.10;99.90
3919;DHT22;1974;48.670;8.994;2022-10-04T08:55:46;12.20;99.90
3919;DHT22;1974;48.670;8.994;2022-10-04T09:14:26;14.10;99.90
3919;DHT22;1974;48.670;8.994;2022-10-04T09:17:02;14.60;99.90
3919;DHT22;1974;48.670;8.994;2022-10-04T09:19:43;14.90;99.90
3919;DHT22;1974;48.670;8.994;2022-10-04T09:22:17;15.40;99.90
3919;DHT22;1974;48.670;8.994;2022-10-04T09:25:02;15.60;99.90
3919;DHT22;1974;48.670;8.994;2022-10-04T09:27:54;15.90;99.90
3919;DHT22;1974;48.670;8.994;2022-10-04T09:30:36;15.80;99.90
3919;DHT22;1974;48.670;8.994;2022-10-04T09:36:23;15.70;99.90
3919;DHT22;1974;48.670;8.994;2022-10-04T09:39:15;15.50;99.90
3919;DHT22;1974;48.670;8.994;2022-10-04T09:42:21;15.50;99.90
3919;DHT22;1974;48.670;8.994;2022-10-04T09:45:44;15.40;99.90
3919;DHT22;1974;48.670;8.994;2022-10-04T09:48:22;15.30;99.90
3919;DHT22;1974;48.670;8.994;2022-10-04T09:51:23;15.30;99.90
3919;DHT22;1974;48.670;8.994;2022-10-04T09:54:11;15.30;99.90
3919;DHT22;1974;48.670;8.994;2022-10-04T09:56:57;15.30;99.90
3919;DHT22;1974;48.670;8.994;2022-10-04T09:59:44;15.50;99.90
3919;DHT22;1974;48.670;8.994;2022-10-04T10:05:41;15.50;99.90
3919;DHT22;1974;48.670;8.994;2022-10-04T10:08:16;15.90;99.90
3919;DHT22;1974;48.670;8.994;2022-10-04T10:10:55;16.10;99.90
3919;DHT22;1974;48.670;8.994;2022-10-04T10:14:06;16.20;99.90
3919;DHT22;1974;48.670;8.994;2022-10-04T10:16:51;16.40;99.90
3919;DHT22;1974;48.670;8.994;2022-10-04T10:19:36;16.60;99.90
3919;DHT22;1974;48.670;8.994;2022-10-04T10:22:23;16.80;99.90
3919;DHT22;1974;48.670;8.994;2022-10-04T10:25:19;17.30;99.90
3919;DHT22;1974;48.670;8.994;2022-10-04T10:28:01;17.70;99.90
3919;DHT22;1974;48.670;8.994;2022-10-04T10:30:36;18.20;99.90
3919;DHT22;1974;48.670;8.994;2022-10-04T10:36:22;19.80;99.90
3919;DHT22;1974;48.670;8.994;2022-10-04T10:39:21;21.10;99.90
3919;DHT22;1974;48.670;8.994;2022-10-04T10:42:14;22.40;99.90
3919;DHT22;1974;48.670;8.994;2022-10-04T10:45:03;23.30;99.90
3919;DHT22;1974;48.670;8.994;2022-10-04T10:47:39;23.70;99.90
3919;DHT22;1974;48.670;8.994;2022-10-04T11:02:44;20.10;99.90
3919;DHT22;1974;48.670;8.994;2022-10-04T11:08:44;18.80;99.90
3919;DHT22;1974;48.670;8.994;2022-10-04T11:11:29;18.50;99.90
3919;DHT22;1974;48.670;8.994;2022-10-04T11:14:21;18.10;99.90
3919;DHT22;1974;48.670;8.994;2022-10-04T11:17:21;18.00;99.90
3919;DHT22;1974;48.670;8.994;2022-10-04T11:20:13;17.90;99.90
3919;DHT22;1974;48.670;8.994;2022-10-04T11:23:25;17.80;99.90
3919;DHT22;1974;48.670;8.994;2022-10-04T11:26:37;17.70;99.90
3919;DHT22;1974;48.670;8.994;2022-10-04T11:29:21;17.60;99.90
3919;DHT22;1974;48.670;8.994;2022-10-04T11:32:30;17.50;99.90
3919;DHT22;1974;48.670;8.994;2022-10-04T11:35:37;17.40;99.90
3919;DHT22;1974;48.670;8.994;2022-10-04T11:38:10;17.40;99.90
3919;DHT22;1974;48.670;8.994;2022-10-04T11:41:03;17.40;99.90
3919;DHT22;1974;48.670;8.994;2022-10-04T11:44:04;17.30;99.90
3919;DHT22;1974;48.670;8.994;2022-10-04T11:46:47;17.30;99.90
3919;DHT22;1974;48.670;8.994;2022-10-04T11:49:42;17.40;99.90
3919;DHT22;1974;48.670;8.994;2022-10-04T11:52:39;17.30;99.90
3919;DHT22;1974;48.670;8.994;2022-10-04T11:55:55;17.20;99.90
3919;DHT22;1974;48.670;8.994;2022-10-04T11:58:39;17.20;99.90
3919;DHT22;1974;48.670;8.994;2022-10-04T12:01:38;17.30;99.90
3919;DHT22;1974;48.670;8.994;2022-10-04T12:04:33;17.30;99.90
3919;DHT22;1974;48.670;8.994;2022-10-04T12:07:26;17.30;99.90
3919;DHT22;1974;48.670;8.994;2022-10-04T12:10:08;17.20;99.90
3919;DHT22;1974;48.670;8.994;2022-10-04T12:12:52;17.20;99.90
3919;DHT22;1974;48.670;8.994;2022-10-04T12:15:39;17.10;99.90
3919;DHT22;1974;48.670;8.994;2022-10-04T12:18:39;17.00;99.90
3919;DHT22;1974;48.670;8.994;2022-10-04T12:24:41;16.90;99.90
3919;DHT22;1974;48.670;8.994;2022-10-04T12:27:37;17.00;99.90
3919;DHT22;1974;48.670;8.994;2022-10-04T12:30:21;17.00;99.90
3919;DHT22;1974;48.670;8.994;2022-10-04T12:32:54;17.00;99.90
3919;DHT22;1974;48.670;8.994;2022-10-04T12:35:34;17.00;99.90
3919;DHT22;1974;48.670;8.994;2022-10-04T12:41:07;16.90;99.90
3919;DHT22;1974;48.670;8.994;2022-10-04T12:43:48;16.80;99.90
3919;DHT22;1974;48.670;8.994;2022-10-04T12:46:30;16.80;99.90
3919;DHT22;1974;48.670;8.994;2022-10-04T12:49:15;16.80;99.90
3919;DHT22;1974;48.670;8.994;2022-10-04T12:51:54;16.70;99.90
3919;DHT22;1974;48.670;8.994;2022-10-04T12:54:31;16.70;99.90
3919;DHT22;1974;48.670;8.994;2022-10-04T12:57:13;16.70;99.90
3919;DHT22;1974;48.670;8.994;2022-10-04T12:59:50;16.70;99.90
3919;DHT22;1974;48.670;8.994;2022-10-04T13:02:35;16.60;99.90
3919;DHT22;1974;48.670;8.994;2022-10-04T13:05:15;16.70;99.90
3919;DHT22;1974;48.670;8.994;2022-10-04T13:08:06;16.70;99.90
3919;DHT22;1974;48.670;8.994;2022-10-04T13:10:52;16.80;99.90
3919;DHT22;1974;48.670;8.994;2022-10-04T13:13:43;16.80;99.90
3919;DHT22;1974;48.670;8.994;2022-10-04T13:16:15;16.80;99.90
3919;DHT22;1974;48.670;8.994;2022-10-04T13:18:54;16.90;99.90
3919;DHT22;1974;48.670;8.994;2022-10-04T13:21:42;16.80;99.90
3919;DHT22;1974;48.670;8.994;2022-10-04T13:24:19;16.70;99.90
3919;DHT22;1974;48.670;8.994;2022-10-04T13:26:54;16.70;99.90
3919;DHT22;1974;48.670;8.994;2022-10-04T13:29:30;16.60;99.90
3919;DHT22;1974;48.670;8.994;2022-10-04T13:32:01;16.60;99.90
3919;DHT22;1974;48.670;8.994;2022-10-04T13:34:35;16.50;99.90
3919;DHT22;1974;48.670;8.994;2022-10-04T13:37:27;16.40;99.90
3919;DHT22;1974;48.670;8.994;2022-10-04T13:40:19;16.30;99.90
3919;DHT22;1974;48.670;8.994;2022-10-04T13:46:11;16.30;99.90
3919;DHT22;1974;48.670;8.994;2022-10-04T13:48:49;16.30;99.90
3919;DHT22;1974;48.670;8.994;2022-10-04T13:51:38;16.20;99.90
3919;DHT22;1974;48.670;8.994;2022-10-04T13:54:21;16.20;99.90
3919;DHT22;1974;48.670;8.994;2022-10-04T13:57:21;16.20;99.90
3919;DHT22;1974;48.670;8.994;2022-10-04T13:59:52;16.30;99.90
3919;DHT22;1974;48.670;8.994;2022-10-04T14:02:53;16.30;99.90
3919;DHT22;1974;48.670;8.994;2022-10-04T14:08:55;16.30;99.90
3919;DHT22;1974;48.670;8.994;2022-10-04T14:11:52;16.30;99.90
3919;DHT22;1974;48.670;8.994;2022-10-04T14:15:03;16.30;99.90
3919;DHT22;1974;48.670;8.994;2022-10-04T14:21:08;16.40;99.90
3919;DHT22;1974;48.670;8.994;2022-10-04T14:24:22;16.60;99.90
3919;DHT22;1974;48.670;8.994;2022-10-04T14:27:11;16.70;99.90
3919;DHT22;1974;48.670;8.994;2022-10-04T14:29:52;16.60;99.90
3919;DHT22;1974;48.670;8.994;2022-10-04T14:35:29;16.60;99.90
3919;DHT22;1974;48.670;8.994;2022-10-04T14:41:16;16.70;99.90
3919;DHT22;1974;48.670;8.994;2022-10-04T14:44:06;16.70;99.90
3919;DHT22;1974;48.670;8.994;2022-10-04T14:46:49;16.70;99.90
3919;DHT22;1974;48.670;8.994;2022-10-04T14:49:25;16.60;99.90
3919;DHT22;1974;48.670;8.994;2022-10-04T14:52:07;16.60;99.90
3919;DHT22;1974;48.670;8.994;2022-10-04T14:54:49;16.60;99.90
3919;DHT22;1974;48.670;8.994;2022-10-04T14:57:23;16.60;99.90
3919;DHT22;1974;48.670;8.994;2022-10-04T15:00:26;16.60;99.90
3919;DHT22;1974;48.670;8.994;2022-10-04T15:03:16;16.50;99.90
3919;DHT22;1974;48.670;8.994;2022-10-04T15:06:04;16.50;99.90
3919;DHT22;1974;48.670;8.994;2022-10-04T15:11:37;16.50;99.90
3919;DHT22;1974;48.670;8.994;2022-10-04T15:14:22;16.50;99.90
3919;DHT22;1974;48.670;8.994;2022-10-04T15:16:54;16.50;99.90
3919;DHT22;1974;48.670;8.994;2022-10-04T15:19:26;16.40;99.90
3919;DHT22;1974;48.670;8.994;2022-10-04T15:22:03;16.60;99.90
3919;DHT22;1974;48.670;8.994;2022-10-04T15:24:44;16.60;99.90
3919;DHT22;1974;48.670;8.994;2022-10-04T15:27:43;16.60;99.90
3919;DHT22;1974;48.670;8.994;2022-10-04T15:30:19;16.70;99.90
3919;DHT22;1974;48.670;8.994;2022-10-04T15:32:54;16.70;99.90
3919;DHT22;1974;48.670;8.994;2022-10-04T15:35:28;16.70;99.90
3919;DHT22;1974;48.670;8.994;2022-10-04T15:38:00;16.60;99.90
3919;DHT22;1974;48.670;8.994;2022-10-04T15:40:36;16.70;99.90
3919;DHT22;1974;48.670;8.994;2022-10-04T15:43:26;16.70;99.90
3919;DHT22;1974;48.670;8.994;2022-10-04T15:46:15;16.70;99.90
3919;DHT22;1974;48.670;8.994;2022-10-04T15:51:48;16.60;99.90
3919;DHT22;1974;48.670;8.994;2022-10-04T15:54:43;16.50;99.90
3919;DHT22;1974;48.670;8.994;2022-10-04T15:57:28;16.60;99.90
3919;DHT22;1974;48.670;8.994;2022-10-04T16:00:05;16.50;99.90
3919;DHT22;1974;48.670;8.994;2022-10-04T16:02:49;16.40;99.90
3919;DHT22;1974;48.670;8.994;2022-10-04T16:05:23;16.40;99.90
3919;DHT22;1974;48.670;8.994;2022-10-04T16:08:03;16.40;99.90
3919;DHT22;1974;48.670;8.994;2022-10-04T16:13:43;16.40;99.90
3919;DHT22;1974;48.670;8.994;2022-10-04T16:19:41;16.30;99.90
3919;DHT22;1974;48.670;8.994;2022-10-04T16:22:12;16.20;99.90
3919;DHT22;1974;48.670;8.994;2022-10-04T16:24:46;16.20;99.90
3919;DHT22;1974;48.670;8.994;2022-10-04T16:27:44;16.20;99.90
3919;DHT22;1974;48.670;8.994;2022-10-04T16:30:18;16.20;99.90
3919;DHT22;1974;48.670;8.994;2022-10-04T16:33:05;16.10;99.90
3919;DHT22;1974;48.670;8.994;2022-10-04T16:35:39;16.10;99.90
3919;DHT22;1974;48.670;8.994;2022-10-04T16:38:20;16.10;99.90
3919;DHT22;1974;48.670;8.994;2022-10-04T16:41:00;16.00;99.90
3919;DHT22;1974;48.670;8.994;2022-10-04T16:43:31;15.90;99.90
3919;DHT22;1974;48.670;8.994;2022-10-04T16:46:08;15.90;99.90
3919;DHT22;1974;48.670;8.994;2022-10-04T16:48:48;15.80;99.90
3919;DHT22;1974;48.670;8.994;2022-10-04T16:51:35;15.80;99.90
3919;DHT22;1974;48.670;8.994;2022-10-04T16:54:29;15.70;99.90
3919;DHT22;1974;48.670;8.994;2022-10-04T16:57:13;15.60;99.90
3919;DHT22;1974;48.670;8.994;2022-10-04T16:59:46;15.50;99.90
3919;DHT22;1974;48.670;8.994;2022-10-04T17:02:44;15.50;99.90
3919;DHT22;1974;48.670;8.994;2022-10-04T17:05:19;15.40;99.90
3919;DHT22;1974;48.670;8.994;2022-10-04T17:08:06;15.30;99.90
3919;DHT22;1974;48.670;8.994;2022-10-04T17:10:41;15.30;99.90
3919;DHT22;1974;48.670;8.994;2022-10-04T17:13:21;15.20;99.90
3919;DHT22;1974;48.670;8.994;2022-10-04T17:16:00;15.20;99.90
3919;DHT22;1974;48.670;8.994;2022-10-04T17:18:34;15.10;99.90
3919;DHT22;1974;48.670;8.994;2022-10-04T17:21:18;15.10;99.90
3919;DHT22;1974;48.670;8.994;2022-10-04T17:24:05;15.10;99.90
3919;DHT22;1974;48.670;8.994;2022-10-04T17:26:45;15.10;99.90
3919;DHT22;1974;48.670;8.994;2022-10-04T17:29:33;15.00;99.90
3919;DHT22;1974;48.670;8.994;2022-10-04T17:32:06;15.00;99.90
3919;DHT22;1974;48.670;8.994;2022-10-04T17:34:47;15.00;99.90
3919;DHT22;1974;48.670;8.994;2022-10-04T17:37:25;14.90;99.90
3919;DHT22;1974;48.670;8.994;2022-10-04T17:40:17;14.90;99.90
3919;DHT22;1974;48.670;8.994;2022-10-04T17:42:50;14.80;99.90
3919;DHT22;1974;48.670;8.994;2022-10-04T17:45:55;14.90;99.90
3919;DHT22;1974;48.670;8.994;2022-10-04T17:48:27;14.80;99.90
3919;DHT22;1974;48.670;8.994;2022-10-04T17:51:32;14.90;99.90
3919;DHT22;1974;48.670;8.994;2022-10-04T17:54:20;14.90;99.90
3919;DHT22;1974;48.670;8.994;2022-10-04T17:57:16;14.90;99.90
3919;DHT22;1974;48.670;8.994;2022-10-04T17:59:50;14.90;99.90
3919;DHT22;1974;48.670;8.994;2022-10-04T18:02:22;14.90;99.90
3919;DHT22;1974;48.670;8.994;2022-10-04T18:04:55;14.90;99.90
3919;DHT22;1974;48.670;8.994;2022-10-04T18:07:25;15.00;99.90
3919;DHT22;1974;48.670;8.994;2022-10-04T18:09:55;14.90;99.90
3919;DHT22;1974;48.670;8.994;2022-10-04T18:12:26;14.90;99.90
3919;DHT22;1974;48.670;8.994;2022-10-04T18:15:01;14.80;99.90
3919;DHT22;1974;48.670;8.994;2022-10-04T18:17:34;14.80;99.90
3919;DHT22;1974;48.670;8.994;2022-10-04T18:20:23;14.80;99.90
3919;DHT22;1974;48.670;8.994;2022-10-04T18:22:56;14.80;99.90
3919;DHT22;1974;48.670;8.994;2022-10-04T18:25:25;14.80;99.90
3919;DHT22;1974;48.670;8.994;2022-10-04T18:28:01;14.80;99.90
3919;DHT22;1974;48.670;8.994;2022-10-04T18:30:31;14.70;99.90
3919;DHT22;1974;48.670;8.994;2022-10-04T18:32:59;14.70;99.90
3919;DHT22;1974;48.670;8.994;2022-10-04T18:35:28;14.70;99.90
3919;DHT22;1974;48.670;8.994;2022-10-04T18:37:56;14.70;99.90
3919;DHT22;1974;48.670;8.994;2022-10-04T18:40:40;14.70;99.90
3919;DHT22;1974;48.670;8.994;2022-10-04T18:43:25;14.70;99.90
3919;DHT22;1974;48.670;8.994;2022-10-04T18:46:00;14.70;99.90
3919;DHT22;1974;48.670;8.994;2022-10-04T18:48:36;14.60;99.90
3919;DHT22;1974;48.670;8.994;2022-10-04T18:51:26;14.50;99.90
3919;DHT22;1974;48.670;8.994;2022-10-04T18:54:15;14.40;99.90